Language selection

My Weather Profile Weather Topics  | 

Lake Melville: Past 24 Hour Conditions

 

CFB Goose Bay

10:00 AM AST 01 February 2023
Disclaimer

This table is a summary of hourly weather conditions for the past 24 hours.
Please note that these observations might not always be representative of weather conditions over their associated marine area.

Date / Time
(AST)
Wind(knots) Conditions Visibility(km) Pressure(kPa) Air tempC) Relative humidity(%) Dew pointC) Wind Chill
01 February 2023
10:00 WSW 3 Sunny 24 101.7 -26 53 -33 -31
9:00 WSW 9 gust 15 Sunny 24 101.7 -29 57 -35 -41
8:00 WSW 12 Sunny 24 101.6 -31 58 -37 -45
7:00 SW 11 Clear 24 101.7 -32 60 -37 -45
6:00 SW 8 Clear 24 101.7 -33 60 -38 -45
5:00 WSW 4 Clear 24 101.7 -32 55 -38 -40
4:00 calm Clear 24 101.7 -33 58 -38 *
3:00 WSW 7 Clear 24 101.7 -32 59 -37 -43
2:00 W 7 Clear 24 101.7 -30 59 -36 -41
1:00 W 10 Mainly Clear 24 101.7 -30 58 -35 -42
0:00 W 9 Mostly Cloudy 24 101.8 -29 57 -35 -41
31 January 2023
23:00 WSW 7 Mainly Clear 24 101.8 -29 60 -34 -39
22:00 W 6 Clear 24 101.8 -28 63 -33 -38
21:00 W 5 Clear 24 101.8 -29 57 -35 -37
20:00 W 3 Clear 24 101.8 -30 58 -36 -36
19:00 WNW 2 Clear 24 101.8 -28 66 -32 -32
18:00 S 2 Clear 24 101.8 -26 57 -32 -30
17:00 E 3 Mainly Clear 24 101.8 -24 55 -31 -29
16:00 ENE 4 Mainly Sunny 24 101.8 -22 56 -28 -28
15:00 NE 3 Light Snowshower 5 101.8 -21 55 -27 -25
14:00 calm Mainly Sunny 24 101.8 -20 49 -28 *
13:00 calm Sunny 24 101.8 -21 47 -29 *
12:00 calm Sunny 24 101.9 -22 53 -29 *
11:00 calm Sunny 24 102.0 -22 54 -29 *
10:00 W 5 Sunny 24 102.0 -25 57 -31 -33

Zoom-in to make a selection

Map of Atlantic - Labrador marine weather areas Kangiqsualujjuaq Airport Cape Kakkiviak Cape Kiglapait Cartwright Airport CFB Goose Bay Hopedale Mary's Harbour Nain Airport Makkovik Airport Saglek Tukialik Bay
Legend:
buoy Buoy
land station Land Station

Atlantic - Labrador Area

Another Region

What we are doing

Date modified: